Time;durP1;ratioP1;P1;durP2;ratioP2;P2;SDS_P1;SDS_P2;PMS_P1;PMS_P2;Temp;Humidity;BMP_temperature;BMP_pressure;BME280_temperature;BME280_humidity;BME280_pressure;Samples;Min_cycle;Max_cycle;Signal;HPM_P1;HPM_P2
2021/05/24 00:00:34;;;;;;;5.35;3.30;;;;;;;19.10;35.71;99542.78;5092655;28;20032;-75
2021/05/24 00:03:00;;;;;;;6.03;3.83;;;;;;;19.02;35.72;99542.00;5092284;28;20055;-73
2021/05/24 00:05:31;;;;;;;8.07;3.88;;;;;;;18.93;36.18;99544.41;5092578;28;20028;-74
2021/05/24 00:07:57;;;;;;;5.68;3.38;;;;;;;19.01;35.81;99551.50;5092559;28;20071;-74
2021/05/24 00:10:29;;;;;;;5.53;3.33;;;;;;;19.05;35.86;99551.53;5091287;28;20028;-74
2021/05/24 00:12:57;;;;;;;5.60;3.60;;;;;;;19.00;35.60;99549.16;5092580;28;20028;-74
2021/05/24 00:15:26;;;;;;;4.30;3.20;;;;;;;19.02;35.87;99544.78;5092199;28;20043;-80
2021/05/24 00:17:52;;;;;;;4.85;3.20;;;;;;;19.08;35.62;99545.19;5092545;28;20035;-74
2021/05/24 00:20:22;;;;;;;5.13;3.45;;;;;;;18.98;35.77;99551.53;5091829;28;20548;-74
2021/05/24 00:22:48;;;;;;;6.35;3.15;;;;;;;19.06;35.74;99553.09;5091630;28;20047;-75
2021/05/24 00:25:15;;;;;;;4.32;3.28;;;;;;;19.03;35.58;99553.88;5091815;28;20028;-74
2021/05/24 00:27:42;;;;;;;5.43;3.40;;;;;;;19.02;35.79;99553.09;5091732;28;20461;-74
2021/05/24 00:30:08;;;;;;;4.72;2.95;;;;;;;18.94;35.79;99550.72;5091851;28;20032;-75
2021/05/24 00:32:34;;;;;;;4.78;2.88;;;;;;;18.83;36.16;99554.31;5091601;28;20035;-75
2021/05/24 00:34:59;;;;;;;5.00;3.25;;;;;;;18.95;35.76;99553.09;5090249;28;20646;-74
2021/05/24 00:37:25;;;;;;;4.45;3.42;;;;;;;18.89;36.05;99551.91;5091399;28;20115;-75
2021/05/24 00:39:50;;;;;;;4.85;3.42;;;;;;;18.82;35.78;99555.50;5091454;28;20035;-74
2021/05/24 00:42:17;;;;;;;5.43;2.85;;;;;;;18.84;35.95;99552.34;5091384;28;20024;-74
2021/05/24 00:44:43;;;;;;;4.90;3.13;;;;;;;18.91;35.92;99546.78;5091471;28;20028;-74
2021/05/24 00:47:09;;;;;;;4.78;3.35;;;;;;;18.87;36.01;99553.50;5091426;28;20036;-74
2021/05/24 00:49:35;;;;;;;5.28;3.20;;;;;;;18.90;35.66;99553.53;5092695;28;20391;-77
2021/05/24 00:52:01;;;;;;;4.30;2.95;;;;;;;18.87;35.66;99553.50;5095521;28;20085;-74
2021/05/24 00:54:27;;;;;;;4.95;3.20;;;;;;;18.85;35.77;99551.94;5094769;28;20051;-74
2021/05/24 00:56:54;;;;;;;4.28;3.30;;;;;;;18.80;35.91;99552.31;5093960;28;20030;-80
2021/05/24 00:59:20;;;;;;;5.30;3.22;;;;;;;18.78;35.82;99542.84;5095269;28;20043;-74
2021/05/24 01:01:46;;;;;;;4.88;3.67;;;;;;;18.76;35.79;99543.25;5095829;28;20036;-75
2021/05/24 01:04:14;;;;;;;6.22;3.42;;;;;;;18.78;35.84;99543.66;5095608;28;20516;-74
2021/05/24 01:06:40;;;;;;;4.50;3.28;;;;;;;18.76;35.74;99545.22;5094483;28;20060;-74
2021/05/24 01:09:06;;;;;;;6.00;2.95;;;;;;;18.72;35.91;99536.91;5095659;28;20067;-74
2021/05/24 01:11:32;;;;;;;6.50;3.88;;;;;;;18.72;35.86;99542.47;5095130;28;20028;-74
2021/05/24 01:13:57;;;;;;;6.53;3.60;;;;;;;18.73;35.79;99546.00;5089734;28;20492;-80
2021/05/24 01:16:23;;;;;;;6.47;3.10;;;;;;;18.67;35.67;99542.09;5077373;28;20039;-74
2021/05/24 01:18:48;;;;;;;6.07;3.35;;;;;;;18.59;35.71;99546.81;5095516;28;20590;-73
2021/05/24 01:21:17;;;;;;;4.18;2.97;;;;;;;18.54;35.89;99544.44;5095543;28;20488;-74
2021/05/24 01:23:43;;;;;;;7.20;3.63;;;;;;;18.54;35.83;99544.44;5096867;28;20101;-74
2021/05/24 01:26:09;;;;;;;3.95;3.13;;;;;;;18.53;35.84;99548.38;5113037;28;20548;-74
2021/05/24 01:28:35;;;;;;;4.82;3.35;;;;;;;18.48;36.07;99554.28;5096150;28;20134;-74
2021/05/24 01:31:01;;;;;;;5.50;3.25;;;;;;;18.31;36.04;99558.63;5095417;28;20060;-74
2021/05/24 01:33:27;;;;;;;4.38;3.05;;;;;;;18.28;35.73;99548.34;5095338;28;20024;-74
2021/05/24 01:35:53;;;;;;;3.83;3.08;;;;;;;18.24;35.91;99555.88;5095260;28;20024;-74
2021/05/24 01:38:20;;;;;;;5.78;3.40;;;;;;;18.12;35.90;99559.78;5095177;28;20028;-75
2021/05/24 01:40:47;;;;;;;3.67;2.78;;;;;;;18.13;35.54;99563.34;5095076;28;20028;-74
2021/05/24 01:43:14;;;;;;;5.70;3.85;;;;;;;17.97;35.80;99552.66;5095238;28;20200;-74
2021/05/24 01:45:41;;;;;;;3.92;3.10;;;;;;;17.91;35.93;99563.31;5076892;28;20075;-73
2021/05/24 01:48:08;;;;;;;7.07;4.00;;;;;;;17.84;35.81;99566.06;5094812;28;20063;-74
2021/05/24 01:50:34;;;;;;;4.50;3.92;;;;;;;17.91;35.91;99562.50;5094911;28;20497;-74
2021/05/24 01:53:00;;;;;;;6.93;4.57;;;;;;;17.91;35.98;99562.50;5110600;28;20367;-74
2021/05/24 01:55:26;;;;;;;5.40;4.15;;;;;;;17.85;35.95;99567.63;5094499;28;20020;-74
2021/05/24 01:57:53;;;;;;;5.38;3.95;;;;;;;17.79;35.95;99568.41;5094773;28;20024;-74
2021/05/24 02:00:23;;;;;;;4.28;3.63;;;;;;;17.77;36.19;99573.53;5094618;28;20020;-74
2021/05/24 02:02:49;;;;;;;;;;;;;;;17.78;36.27;99572.34;5110600;28;20079;-74
2021/05/24 02:05:17;;;;;;;5.22;3.72;;;;;;;17.88;35.92;99582.63;5094941;28;19912;-74
2021/05/24 02:07:46;;;;;;;6.88;4.28;;;;;;;17.83;36.02;99580.22;5094630;28;20020;-74
2021/05/24 02:10:15;;;;;;;4.82;3.78;;;;;;;17.77;35.89;99573.53;5094503;28;20504;-75
2021/05/24 02:12:41;;;;;;;6.43;4.45;;;;;;;17.80;36.17;99572.72;5094470;28;20069;-81
2021/05/24 02:15:09;;;;;;;5.20;3.42;;;;;;;17.83;35.83;99578.25;5094445;28;20049;-74
2021/05/24 02:17:34;;;;;;;6.15;3.55;;;;;;;17.83;35.68;99585.75;5094288;28;20381;-74
2021/05/24 02:20:00;;;;;;;4.65;3.85;;;;;;;17.78;36.15;99586.94;5094347;28;20024;-74
2021/05/24 02:22:26;;;;;;;4.40;3.35;;;;;;;17.73;36.19;99585.34;5094444;28;20028;-74
2021/05/24 02:24:51;;;;;;;5.88;4.18;;;;;;;17.71;36.19;99586.91;5094509;28;20063;-74
2021/05/24 02:27:17;;;;;;;5.10;3.70;;;;;;;17.69;36.33;99587.28;5094564;28;20079;-78
2021/05/24 02:29:43;;;;;;;4.65;3.65;;;;;;;17.62;36.31;99587.25;5094398;28;20136;-74
2021/05/24 02:32:09;;;;;;;6.47;4.15;;;;;;;17.56;36.40;99591.56;5094142;28;20439;-75
2021/05/24 02:34:35;;;;;;;7.28;4.65;;;;;;;17.59;36.42;99596.28;5109800;28;20074;-74
2021/05/24 02:37:01;;;;;;;6.18;3.83;;;;;;;17.58;36.28;99597.47;5075816;28;20028;-74
2021/05/24 02:39:26;;;;;;;5.28;4.18;;;;;;;17.60;36.41;99592.34;5093904;28;20047;-74
2021/05/24 02:41:52;;;;;;;7.60;3.90;;;;;;;17.50;36.46;99593.09;5094207;28;20508;-74
2021/05/24 02:44:18;;;;;;;6.35;4.03;;;;;;;17.46;36.61;99590.34;5094025;28;20487;-74
2021/05/24 02:46:44;;;;;;;4.55;3.67;;;;;;;17.32;36.68;99606.03;5093854;28;20500;-74
2021/05/24 02:49:10;;;;;;;7.47;4.10;;;;;;;17.39;36.61;99606.88;5109506;28;20024;-74
2021/05/24 02:51:36;;;;;;;4.93;4.00;;;;;;;17.33;36.67;99602.09;5093946;28;20047;-75
2021/05/24 02:54:04;;;;;;;6.68;4.47;;;;;;;17.42;36.67;99608.06;5075520;28;20032;-75
2021/05/24 02:56:30;;;;;;;5.68;3.85;;;;;;;17.45;36.67;99608.06;5093660;28;20032;-74
2021/05/24 02:58:55;;;;;;;4.40;3.90;;;;;;;17.51;36.54;99610.47;5093595;28;20036;-74
2021/05/24 03:01:22;;;;;;;5.95;3.97;;;;;;;17.55;36.61;99606.56;5093578;28;20030;-74
2021/05/24 03:03:54;;;;;;;5.97;4.18;;;;;;;17.54;36.44;99607.72;5075061;28;20044;-74
2021/05/24 03:06:20;;;;;;;5.53;4.60;;;;;;;17.55;36.56;99614.03;5093506;28;20380;-75
2021/05/24 03:08:47;;;;;;;7.50;4.72;;;;;;;17.52;36.57;99629.41;5093153;28;20443;-74
2021/05/24 03:11:13;;;;;;;6.32;4.57;;;;;;;17.45;36.54;99618.31;5109011;28;20059;-74
2021/05/24 03:13:39;;;;;;;6.03;4.90;;;;;;;17.51;36.46;99627.03;5092893;28;20378;-74
2021/05/24 03:16:04;;;;;;;6.80;5.22;;;;;;;17.50;36.66;99617.16;5093275;28;20232;-74
2021/05/24 03:18:30;;;;;;;7.00;5.35;;;;;;;17.46;36.47;99626.25;5093289;28;20028;-74
2021/05/24 03:20:55;;;;;;;5.80;4.43;;;;;;;17.47;36.44;99622.28;5093206;28;20027;-74
2021/05/24 03:23:21;;;;;;;6.28;4.50;;;;;;;17.48;36.48;99623.09;5093152;28;20039;-74
2021/05/24 03:25:46;;;;;;;7.63;4.97;;;;;;;17.49;36.34;99630.19;5093218;28;20024;-74
2021/05/24 03:28:12;;;;;;;5.45;4.68;;;;;;;17.47;36.44;99629.78;5074963;28;20059;-74
2021/05/24 03:30:38;;;;;;;8.13;5.07;;;;;;;17.46;36.34;99642.81;5093022;28;20028;-74
2021/05/24 03:33:03;;;;;;;5.70;4.43;;;;;;;17.42;36.35;99641.19;5093323;28;20024;-74
2021/05/24 03:35:29;;;;;;;8.20;5.10;;;;;;;17.35;36.65;99649.44;5092983;28;20026;-78
2021/05/24 03:37:54;;;;;;;6.35;4.40;;;;;;;17.28;36.66;99652.94;5093172;28;20024;-74
2021/05/24 03:40:20;;;;;;;7.53;5.30;;;;;;;17.27;36.62;99654.09;5092698;28;20512;-74
2021/05/24 03:42:46;;;;;;;5.20;4.40;;;;;;;17.29;36.52;99651.75;5093108;28;20380;-74
2021/05/24 03:45:18;;;;;;;6.65;4.88;;;;;;;17.17;36.76;99654.84;5074653;28;20404;-74
2021/05/24 03:47:45;;;;;;;6.85;5.28;;;;;;;17.19;36.65;99656.03;5092858;28;20028;-74
2021/05/24 03:50:12;;;;;;;7.93;5.03;;;;;;;17.21;36.59;99655.63;5093075;28;20020;-75
2021/05/24 03:52:37;;;;;;;6.50;4.40;;;;;;;17.15;36.84;99658.00;5093028;28;20085;-74
2021/05/24 03:55:04;;;;;;;8.07;5.15;;;;;;;17.13;36.50;99663.06;5092741;28;20024;-74
2021/05/24 03:57:30;;;;;;;6.50;5.18;;;;;;;17.10;36.72;99663.06;5092594;28;20055;-74
2021/05/24 03:59:55;;;;;;;7.50;5.68;;;;;;;17.05;36.68;99666.97;5092769;28;20070;-74
2021/05/24 04:02:21;;;;;;;6.72;4.85;;;;;;;17.03;36.89;99666.56;5074253;28;20048;-74
2021/05/24 04:04:47;;;;;;;6.20;4.82;;;;;;;16.99;37.03;99673.22;5092762;28;20028;-75
2021/05/24 04:07:19;;;;;;;6.82;5.32;;;;;;;17.03;36.88;99663.78;5092912;28;20413;-74
2021/05/24 04:09:45;;;;;;;6.18;4.45;;;;;;;16.97;36.80;99676.34;5092654;28;20024;-74
2021/05/24 04:12:11;;;;;;;6.07;4.55;;;;;;;16.99;36.90;99679.53;5092864;28;20093;-74
2021/05/24 04:14:39;;;;;;;7.53;5.40;;;;;;;17.04;36.69;99678.38;5092872;28;20024;-75
2021/05/24 04:17:05;;;;;;;6.43;5.35;;;;;;;17.01;36.74;99682.72;5092804;28;20024;-74
2021/05/24 04:19:30;;;;;;;6.43;4.80;;;;;;;16.97;36.90;99687.41;5092329;28;20424;-74
2021/05/24 04:21:56;;;;;;;7.03;5.18;;;;;;;16.94;36.87;99682.66;5091304;28;20056;-75
2021/05/24 04:24:21;;;;;;;7.30;4.90;;;;;;;16.92;37.10;99690.50;5093532;28;20032;-75
2021/05/24 04:26:47;;;;;;;10.00;5.28;;;;;;;16.88;37.09;99700.72;5095923;28;20032;-74
2021/05/24 04:29:12;;;;;;;7.60;4.47;;;;;;;16.96;36.91;99696.84;5077499;28;20385;-75
2021/05/24 04:31:38;;;;;;;5.97;4.28;;;;;;;16.98;36.83;99702.78;5095475;28;20073;-75
2021/05/24 04:34:04;;;;;;;7.25;5.28;;;;;;;17.05;36.66;99704.81;5095662;28;20028;-79
2021/05/24 04:36:29;;;;;;;7.50;5.25;;;;;;;17.10;36.93;99702.50;5095562;28;20427;-74
2021/05/24 04:38:55;;;;;;;8.55;5.18;;;;;;;17.13;36.83;99712.75;5095594;28;20028;-75
2021/05/24 04:41:21;;;;;;;7.40;5.43;;;;;;;17.12;37.02;99710.38;5095593;28;20021;-78
2021/05/24 04:43:46;;;;;;;7.88;5.68;;;;;;;17.12;37.06;99715.91;5095751;28;20032;-74
2021/05/24 04:46:12;;;;;;;11.50;5.72;;;;;;;17.12;37.19;99724.19;5095718;28;20131;-74
2021/05/24 04:48:38;;;;;;;9.13;6.25;;;;;;;17.13;37.45;99729.31;5095330;28;20027;-73
2021/05/24 04:51:04;;;;;;;7.93;5.22;;;;;;;17.19;37.33;99729.78;5095228;28;20024;-73
2021/05/24 04:53:31;;;;;;;8.23;6.47;;;;;;;17.33;37.12;99746.44;5095371;28;20045;-73
2021/05/24 04:55:57;;;;;;;9.00;6.30;;;;;;;17.41;37.03;99750.06;5095233;28;20035;-74
2021/05/24 04:58:22;;;;;;;10.90;6.90;;;;;;;17.46;36.90;99746.94;5095103;28;20024;-74
2021/05/24 05:00:48;;;;;;;9.18;6.18;;;;;;;17.46;37.14;99753.28;5095056;28;20030;-73
2021/05/24 05:03:14;;;;;;;11.10;6.60;;;;;;;17.39;37.78;99758.72;5094666;28;20501;-72
2021/05/24 05:05:40;;;;;;;8.50;6.70;;;;;;;17.69;37.16;99758.56;5094955;28;20032;-73
2021/05/24 05:08:06;;;;;;;11.18;6.40;;;;;;;17.81;36.93;99763.00;5094862;28;20095;-73
2021/05/24 05:10:32;;;;;;;12.98;7.60;;;;;;;17.71;37.34;99769.25;5094914;28;20116;-74
2021/05/24 05:12:57;;;;;;;9.82;6.90;;;;;;;17.86;37.27;99768.16;5094979;28;20028;-75
2021/05/24 05:15:23;;;;;;;9.05;6.93;;;;;;;17.90;37.54;99770.94;5094857;28;20020;-75
2021/05/24 05:17:49;;;;;;;10.35;6.53;;;;;;;17.94;37.75;99766.22;5094817;28;20077;-73
2021/05/24 05:20:14;;;;;;;12.13;6.72;;;;;;;17.98;37.56;99769.78;5094667;28;20541;-73
2021/05/24 05:22:40;;;;;;;8.50;6.93;;;;;;;18.10;37.50;99775.00;5076352;28;20510;-73
2021/05/24 05:25:07;;;;;;;12.73;6.22;;;;;;;18.21;37.61;99778.63;5094624;28;20032;-74
2021/05/24 05:27:33;;;;;;;7.13;5.50;;;;;;;18.35;37.42;99779.84;5076411;28;20362;-74
2021/05/24 05:29:58;;;;;;;9.70;5.47;;;;;;;18.43;37.38;99787.00;5094581;28;20031;-74
2021/05/24 05:32:24;;;;;;;7.68;5.18;;;;;;;18.55;37.43;99778.38;5094463;28;20419;-74
2021/05/24 05:34:50;;;;;;;8.40;5.65;;;;;;;18.69;37.31;99783.97;5093904;28;20054;-74
2021/05/24 05:37:16;;;;;;;9.20;4.80;;;;;;;18.64;37.59;99781.56;5094402;28;20082;-74
2021/05/24 05:39:42;;;;;;;8.80;4.30;;;;;;;18.76;37.54;99789.53;5094348;28;20114;-74
2021/05/24 05:42:07;;;;;;;5.30;4.45;;;;;;;18.64;37.73;99803.69;5094242;28;20505;-73
2021/05/24 05:44:33;;;;;;;6.13;4.18;;;;;;;18.87;37.49;99794.28;5094269;28;20035;-74
2021/05/24 05:46:58;;;;;;;4.55;3.35;;;;;;;19.08;37.47;99795.13;5076327;28;20028;-76
2021/05/24 05:49:24;;;;;;;6.30;3.78;;;;;;;19.45;37.32;99801.50;5076220;28;20016;-73
2021/05/24 05:51:50;;;;;;;5.15;3.78;;;;;;;19.46;37.45;99808.63;5094706;28;20382;-76
2021/05/24 05:54:15;;;;;;;4.43;3.10;;;;;;;19.62;37.05;99807.06;5094541;28;20082;-73
2021/05/24 05:56:41;;;;;;;5.95;3.42;;;;;;;20.00;36.53;99809.41;5094062;28;20409;-74
2021/05/24 05:59:06;;;;;;;5.82;3.47;;;;;;;19.77;36.80;99810.63;5094049;28;20028;-74
2021/05/24 06:01:32;;;;;;;3.70;2.63;;;;;;;19.79;36.70;99819.31;5093435;28;20059;-73
2021/05/24 06:03:58;;;;;;;6.35;2.33;;;;;;;19.89;36.32;99817.75;5092413;28;20097;-75
2021/05/24 06:06:24;;;;;;;5.95;3.15;;;;;;;19.56;36.75;99819.69;5074837;28;20052;-74
2021/05/24 06:08:49;;;;;;;4.85;2.67;;;;;;;19.58;36.52;99828.47;5093704;28;20028;-73
2021/05/24 06:11:15;;;;;;;6.35;2.53;;;;;;;19.73;36.33;99829.25;5093745;28;20020;-73
2021/05/24 06:13:40;;;;;;;4.63;2.47;;;;;;;19.84;35.97;99827.25;5093778;28;20408;-75
2021/05/24 06:16:06;;;;;;;4.30;2.35;;;;;;;19.91;36.08;99835.56;5093774;28;20049;-76
2021/05/24 06:18:32;;;;;;;4.57;2.30;;;;;;;19.85;35.96;99839.91;5075609;28;20036;-74
2021/05/24 06:20:57;;;;;;;5.05;2.22;;;;;;;19.82;36.04;99842.69;5093374;28;20073;-76
2021/05/24 06:23:23;;;;;;;5.05;2.67;;;;;;;20.01;35.62;99856.13;5094517;28;20050;-73
2021/05/24 06:25:48;;;;;;;3.67;2.15;;;;;;;19.93;35.64;99858.13;5102508;28;20052;-72
2021/05/24 06:28:14;;;;;;;5.88;2.42;;;;;;;20.06;35.47;99860.50;5103710;28;20016;-71
2021/05/24 06:30:40;;;;;;;4.47;2.53;;;;;;;20.20;35.41;99863.25;5106049;28;20034;-72
2021/05/24 06:33:06;;;;;;;8.23;2.97;;;;;;;20.18;35.46;99865.63;5102827;28;20462;-71
2021/05/24 06:35:31;;;;;;;6.80;2.88;;;;;;;20.30;35.42;99881.03;5101689;28;20031;-71
2021/05/24 06:37:57;;;;;;;4.63;2.25;;;;;;;20.50;35.22;99887.78;5103209;28;20023;-73
2021/05/24 06:40:23;;;;;;;5.28;2.08;;;;;;;20.49;35.34;99889.75;5083336;28;20371;-72
2021/05/24 06:42:48;;;;;;;3.47;2.20;;;;;;;20.36;35.57;99880.25;5099442;28;20023;-80
2021/05/24 06:45:16;;;;;;;3.35;2.22;;;;;;;20.50;35.36;99893.31;5097847;28;20042;-74
2021/05/24 06:47:42;;;;;;;5.80;2.13;;;;;;;20.55;35.23;99894.88;5096428;28;20030;-73
2021/05/24 06:50:08;;;;;;;10.05;2.60;;;;;;;20.64;35.16;99901.63;5093379;28;20572;-74
2021/05/24 06:52:34;;;;;;;4.05;2.58;;;;;;;20.52;35.40;99906.78;5092774;28;20024;-80
2021/05/24 06:55:00;;;;;;;4.20;2.53;;;;;;;20.75;34.97;99907.13;5090197;28;20050;-79
2021/05/24 06:57:26;;;;;;;9.65;2.72;;;;;;;20.82;34.85;99907.09;5092549;28;20024;-79
2021/05/24 06:59:51;;;;;;;9.00;3.20;;;;;;;20.83;34.87;99917.00;5092645;28;20026;-79
2021/05/24 07:02:17;;;;;;;6.68;2.40;;;;;;;20.77;34.69;99918.59;5091939;28;20510;-74
2021/05/24 07:04:46;;;;;;;5.28;2.00;;;;;;;20.70;34.85;99922.19;5092416;28;20028;-80
2021/05/24 07:07:12;;;;;;;20.73;3.73;;;;;;;20.74;34.79;99922.19;5092644;28;20423;-76
2021/05/24 07:09:38;;;;;;;4.18;2.17;;;;;;;20.68;34.74;99926.56;5092478;28;20347;-75
2021/05/24 07:12:05;;;;;;;5.85;2.30;;;;;;;20.57;34.99;99928.59;5092973;28;20114;-75
2021/05/24 07:14:30;;;;;;;9.60;2.67;;;;;;;20.70;34.53;99940.84;5093173;28;20032;-73
2021/05/24 07:16:56;;;;;;;17.77;3.47;;;;;;;20.60;34.83;99942.44;5081689;28;20028;-79
2021/05/24 07:19:22;;;;;;;3.45;1.85;;;;;;;20.75;34.25;99946.78;5092785;28;20109;-77
2021/05/24 07:21:48;;;;;;;7.53;2.30;;;;;;;20.83;34.24;99958.66;5092792;28;20035;-74
2021/05/24 07:24:13;;;;;;;8.85;2.38;;;;;;;20.78;34.54;99959.06;5092780;28;20044;-76
2021/05/24 07:26:40;;;;;;;14.77;2.95;;;;;;;20.72;34.82;99961.47;5092825;28;20031;-74
2021/05/24 07:29:05;;;;;;;10.82;2.40;;;;;;;20.90;34.33;99960.63;5091352;28;20119;-72
2021/05/24 07:31:31;;;;;;;5.78;1.90;;;;;;;21.06;34.00;99967.28;5096554;28;20142;-73
2021/05/24 07:33:57;;;;;;;10.18;3.28;;;;;;;21.13;34.09;99960.13;5095312;28;20034;-73
2021/05/24 07:36:22;;;;;;;9.05;2.97;;;;;;;21.03;34.26;99970.09;5092520;28;20024;-75
2021/05/24 07:38:48;;;;;;;18.48;4.90;;;;;;;21.15;34.09;99966.06;5094372;28;20047;-73
2021/05/24 07:41:15;;;;;;;18.67;2.97;;;;;;;21.34;33.89;99973.97;5094199;28;20076;-74
2021/05/24 07:43:41;;;;;;;25.05;4.18;;;;;;;21.49;33.77;99974.69;5094157;28;20106;-73
2021/05/24 07:46:07;;;;;;;22.60;3.67;;;;;;;21.70;33.86;99977.34;5091643;28;20027;-73
2021/05/24 07:48:33;;;;;;;9.70;2.30;;;;;;;21.71;34.08;99970.59;5093190;28;20023;-76
2021/05/24 07:51:00;;;;;;;13.82;2.55;;;;;;;21.62;33.96;99989.72;5094447;28;20032;-73
2021/05/24 07:53:26;;;;;;;11.77;2.78;;;;;;;21.50;34.00;99985.38;5093418;28;20481;-76
2021/05/24 07:55:51;;;;;;;8.48;2.75;;;;;;;21.79;33.61;99990.78;5095221;28;20032;-73
2021/05/24 07:58:17;;;;;;;8.27;2.47;;;;;;;21.71;33.92;99989.25;5093388;28;20741;-78
2021/05/24 08:00:43;;;;;;;10.07;2.50;;;;;;;21.77;33.71;99991.19;5088880;28;20064;-80
2021/05/24 08:03:08;;;;;;;9.88;2.80;;;;;;;21.60;33.90;99992.88;5091304;28;20144;-78
2021/05/24 08:05:34;;;;;;;18.13;3.55;;;;;;;21.66;34.02;99989.66;5091887;28;20070;-77
2021/05/24 08:07:59;;;;;;;9.18;2.25;;;;;;;21.91;33.44;99997.84;5091103;28;20385;-74
2021/05/24 08:10:25;;;;;;;8.07;2.60;;;;;;;22.10;33.30;99992.56;5091561;28;20144;-74
2021/05/24 08:12:51;;;;;;;9.23;2.33;;;;;;;21.93;33.58;100001.81;5091502;28;20078;-74
2021/05/24 08:15:22;;;;;;;7.43;2.25;;;;;;;22.13;33.22;100005.66;5091682;28;20036;-75
2021/05/24 08:17:47;;;;;;;8.93;2.25;;;;;;;22.25;33.10;100011.94;5089406;28;20023;-81
2021/05/24 08:20:14;;;;;;;5.28;1.65;;;;;;;21.99;33.10;100005.75;5091603;28;20391;-74
2021/05/24 08:22:40;;;;;;;9.07;3.22;;;;;;;22.07;32.91;100012.84;5091116;28;20088;-74
2021/05/24 08:25:07;;;;;;;6.60;2.47;;;;;;;22.27;32.69;100007.53;5092234;28;20475;-74
2021/05/24 08:27:35;;;;;;;13.48;3.03;;;;;;;22.32;32.90;100014.66;5091412;28;20024;-74
2021/05/24 08:30:03;;;;;;;11.35;2.60;;;;;;;22.59;32.56;100023.16;5091290;28;20150;-74
2021/05/24 08:32:28;;;;;;;8.27;3.08;;;;;;;22.81;32.32;100024.53;5091169;28;20040;-74
2021/05/24 08:34:54;;;;;;;6.80;2.10;;;;;;;22.82;32.57;100025.31;5091258;28;20028;-79
2021/05/24 08:37:19;;;;;;;6.20;1.63;;;;;;;22.80;32.31;100020.19;5091371;28;20028;-74
2021/05/24 08:39:45;;;;;;;7.32;2.20;;;;;;;22.87;32.36;100024.91;5090983;28;20028;-74
2021/05/24 08:42:11;;;;;;;7.88;2.22;;;;;;;22.80;32.42;100028.53;5091136;28;20024;-73
2021/05/24 08:44:38;;;;;;;4.30;1.50;;;;;;;23.02;31.63;100040.28;5089960;28;20074;-73
2021/05/24 08:47:04;;;;;;;7.80;1.70;;;;;;;22.91;31.30;100034.84;5091132;28;20036;-73
2021/05/24 08:49:30;;;;;;;6.40;1.70;;;;;;;22.93;30.76;100042.78;5091432;28;20038;-74
2021/05/24 08:51:57;;;;;;;4.32;1.83;;;;;;;22.91;30.96;100039.63;5091432;28;20043;-74
2021/05/24 08:54:24;;;;;;;9.55;1.58;;;;;;;23.27;30.94;100040.00;5091109;28;20039;-72
2021/05/24 08:56:49;;;;;;;4.88;1.60;;;;;;;23.02;30.93;100045.06;5091012;28;20052;-73
2021/05/24 08:59:15;;;;;;;7.82;1.70;;;;;;;23.17;31.11;100050.06;5091082;28;20650;-74
2021/05/24 09:01:40;;;;;;;5.10;1.65;;;;;;;23.44;30.33;100055.72;5090974;28;20039;-73
2021/05/24 09:04:06;;;;;;;5.93;2.03;;;;;;;23.66;30.19;100059.06;5091566;28;20059;-73
2021/05/24 09:06:43;;;;;;;3.63;1.33;;;;;;;23.68;30.02;100065.00;5101293;28;20023;-73
2021/05/24 09:09:12;;;;;;;4.13;1.55;;;;;;;23.92;29.86;100065.09;5096769;28;20046;-73
2021/05/24 09:11:39;;;;;;;3.90;1.42;;;;;;;23.68;29.52;100064.22;5085163;28;20472;-75
2021/05/24 09:14:14;;;;;;;3.40;1.25;;;;;;;23.51;28.92;100085.53;5105882;28;20059;-75
2021/05/24 09:16:40;;;;;;;4.78;1.45;;;;;;;23.63;28.81;100067.47;5101105;28;20020;-75
2021/05/24 09:19:14;;;;;;;9.35;1.83;;;;;;;23.61;28.65;100079.03;5094476;28;20490;-74
2021/05/24 09:22:09;;;;;;;4.38;1.45;;;;;;;23.37;28.94;100085.69;5091288;28;20382;-75
2021/05/24 09:24:40;;;;;;;5.32;1.60;;;;;;;23.80;28.70;100084.00;5089651;28;20024;-75
2021/05/24 09:27:22;;;;;;;4.70;1.45;;;;;;;23.58;28.52;100085.44;5092973;28;20028;-74
2021/05/24 09:29:49;;;;;;;6.50;1.98;;;;;;;23.69;28.31;100086.13;5093821;28;20020;-74
2021/05/24 09:32:25;;;;;;;5.95;1.73;;;;;;;23.78;27.81;100091.19;5091792;28;20343;-75
2021/05/24 09:34:52;;;;;;;12.13;2.80;;;;;;;23.60;28.43;100093.38;5091156;28;20168;-74
2021/05/24 09:37:27;;;;;;;5.35;1.20;;;;;;;23.52;28.25;100089.88;5094291;28;20027;-72
2021/05/24 09:39:53;;;;;;;5.75;1.05;;;;;;;23.67;28.33;100088.53;5075714;28;20439;-73
2021/05/24 09:42:19;;;;;;;8.32;1.73;;;;;;;23.83;28.15;100098.31;5075579;28;20108;-73
2021/05/24 09:44:47;;;;;;;9.05;1.75;;;;;;;24.22;28.53;100100.53;5095891;28;20054;-73
2021/05/24 09:47:14;;;;;;;32.38;5.03;;;;;;;24.27;28.12;100106.44;5090877;28;20032;-80
2021/05/24 09:49:40;;;;;;;11.70;3.60;;;;;;;24.65;28.14;100105.50;5089199;28;20055;-75
2021/05/24 09:52:06;;;;;;;35.45;4.88;;;;;;;24.70;27.68;100111.38;5092950;28;20752;-74
2021/05/24 09:54:36;;;;;;;14.45;1.73;;;;;;;24.47;26.47;100111.34;5092898;28;20028;-74
2021/05/24 09:57:05;;;;;;;4.93;1.38;;;;;;;24.48;26.97;100110.13;5088933;28;20090;-77
2021/05/24 09:59:33;;;;;;;2.38;1.35;;;;;;;24.47;26.54;100120.50;5090263;28;20031;-73
2021/05/24 10:02:01;;;;;;;4.53;1.45;;;;;;;24.88;26.68;100119.47;5090487;28;20028;-73
2021/05/24 10:04:30;;;;;;;4.15;0.95;;;;;;;24.22;26.58;100122.88;5092813;28;20048;-73
2021/05/24 10:06:57;;;;;;;9.48;2.08;;;;;;;24.86;26.24;100127.47;5091415;28;20565;-76
2021/05/24 10:09:23;;;;;;;9.93;1.48;;;;;;;24.88;26.40;100130.66;5115288;28;20030;-73
2021/05/24 10:11:51;;;;;;;4.85;1.00;;;;;;;24.85;26.41;100132.25;5096115;28;20028;-78
2021/05/24 10:14:21;;;;;;;3.63;1.25;;;;;;;24.70;25.74;100124.53;5094153;28;20055;-78
2021/05/24 10:16:49;;;;;;;5.18;1.00;;;;;;;25.06;25.13;100135.94;5098897;28;20020;-74
2021/05/24 10:19:20;;;;;;;8.10;2.17;;;;;;;24.67;24.93;100123.41;5114920;28;20106;-78
2021/05/24 10:21:47;;;;;;;6.35;1.25;;;;;;;25.45;24.79;100132.41;5114803;28;20089;-74
2021/05/24 10:24:14;;;;;;;5.13;1.05;;;;;;;25.43;25.15;100148.84;5114924;28;20032;-77
2021/05/24 10:26:41;;;;;;;4.75;1.30;;;;;;;25.16;25.38;100138.56;5114557;28;20603;-77
2021/05/24 10:29:08;;;;;;;31.70;4.00;;;;;;;25.75;24.81;100139.84;5100186;28;20035;-74
2021/05/24 10:31:35;;;;;;;4.75;1.20;;;;;;;25.82;24.74;100139.69;5096424;28;20032;-77
2021/05/24 10:34:18;;;;;;;5.18;1.17;;;;;;;25.01;24.42;100142.78;5098668;28;20032;-73
2021/05/24 10:36:45;;;;;;;9.23;1.75;;;;;;;25.73;24.15;100148.66;5098069;28;20042;-74
2021/05/24 10:39:19;;;;;;;12.82;3.13;;;;;;;26.09;23.79;100149.94;5094298;28;20505;-74
2021/05/24 10:41:51;;;;;;;16.90;3.17;;;;;;;26.14;23.30;100143.81;5094018;28;20034;-74
2021/05/24 10:44:21;;;;;;;21.95;3.05;;;;;;;26.37;23.31;100140.88;5093898;28;20028;-74
2021/05/24 10:46:49;;;;;;;10.90;1.98;;;;;;;26.64;23.44;100148.31;5093912;28;20055;-76
2021/05/24 10:49:26;;;;;;;2.90;0.90;;;;;;;26.96;23.27;100148.28;5092600;28;20427;-78
2021/05/24 10:51:53;;;;;;;7.45;1.88;;;;;;;26.97;23.00;100146.28;5098225;28;20442;-78
2021/05/24 10:54:22;;;;;;;2.88;0.85;;;;;;;26.75;23.27;100154.41;5114414;28;20408;-75
2021/05/24 10:57:00;;;;;;;9.23;1.73;;;;;;;25.83;24.38;100166.44;5114018;28;20523;-74
2021/05/24 10:59:37;;;;;;;2.78;1.10;;;;;;;25.97;24.87;100173.78;5096765;28;20457;-75
2021/05/24 11:02:10;;;;;;;2.78;1.17;;;;;;;25.80;26.06;100170.13;5092964;28;20028;-79
2021/05/24 11:05:10;;;;;;;5.72;1.83;;;;;;;25.54;26.88;100182.19;5093474;28;20067;-76
2021/05/24 11:07:47;;;;;;;1.85;0.93;;;;;;;25.71;26.71;100175.47;5094121;28;20047;-74
2021/05/24 11:10:12;;;;;;;4.40;1.50;;;;;;;26.00;26.50;100176.50;5093665;28;20034;-78
2021/05/24 11:12:39;;;;;;;7.63;1.40;;;;;;;26.14;26.34;100174.59;5093548;28;20385;-75
2021/05/24 11:15:06;;;;;;;45.25;6.53;;;;;;;26.49;25.45;100179.44;5092544;28;20074;-78
2021/05/24 11:17:59;;;;;;;10.77;2.53;;;;;;;26.14;25.41;100175.41;5074670;28;20032;-74
2021/05/24 11:20:50;;;;;;;9.23;1.65;;;;;;;26.45;25.00;100175.97;5093468;28;20028;-74
2021/05/24 11:23:48;;;;;;;8.63;1.90;;;;;;;26.45;24.21;100172.34;5092843;28;20036;-77
2021/05/24 11:26:18;;;;;;;12.40;1.60;;;;;;;26.72;24.17;100180.53;5093155;28;20024;-76
2021/05/24 11:28:51;;;;;;;7.18;1.45;;;;;;;26.65;24.42;100186.31;5091745;28;20443;-75